Time;durP1;ratioP1;P1;durP2;ratioP2;P2;SDS_P1;SDS_P2;PMS_P1;PMS_P2;Temp;Humidity;BMP_temperature;BMP_pressure;BME280_temperature;BME280_humidity;BME280_pressure;Samples;Min_cycle;Max_cycle;Signal;HPM_P1;HPM_P2
2024/03/07 00:00:28;;;;;;;53.45;31.25;;;5.00;99.90;;;;;;4969997;28;20483;-82
2024/03/07 00:02:55;;;;;;;47.33;30.52;;;5.00;99.90;;;;;;4967986;28;20034;-83
2024/03/07 00:05:25;;;;;;;50.10;31.10;;;5.00;99.90;;;;;;4985370;28;20041;-82
2024/03/07 00:07:51;;;;;;;54.30;34.03;;;4.90;99.90;;;;;;4982611;28;20041;-84
2024/03/07 00:10:17;;;;;;;53.75;34.00;;;4.90;99.90;;;;;;4979030;28;20041;-83
2024/03/07 00:12:44;;;;;;;58.33;35.83;;;5.00;99.90;;;;;;4991644;28;20396;-84
2024/03/07 00:15:12;;;;;;;65.50;37.40;;;4.90;99.90;;;;;;4956942;28;21597;-82
2024/03/07 00:17:39;;;;;;;59.53;36.35;;;4.90;99.90;;;;;;4989292;28;20041;-84
2024/03/07 00:20:14;;;;;;;59.58;36.53;;;4.90;99.90;;;;;;5001817;28;20057;-83
2024/03/07 00:22:44;;;;;;;53.22;34.03;;;4.90;99.90;;;;;;4955429;28;20025;-83
2024/03/07 00:25:11;;;;;;;50.10;32.00;;;4.90;99.90;;;;;;4981425;28;21095;-84
2024/03/07 00:27:38;;;;;;;52.10;34.78;;;4.90;99.90;;;;;;4991502;28;20029;-83
2024/03/07 00:30:08;;;;;;;67.18;40.50;;;4.90;99.90;;;;;;4967724;28;20500;-83
2024/03/07 00:32:39;;;;;;;60.00;38.47;;;4.90;99.90;;;;;;4954057;28;20049;-82
2024/03/07 00:35:08;;;;;;;62.08;37.90;;;4.90;99.90;;;;;;4989295;28;20036;-83
2024/03/07 00:37:35;;;;;;;49.97;33.65;;;4.90;99.90;;;;;;4973802;28;20037;-82
2024/03/07 00:40:02;;;;;;;61.72;37.75;;;4.90;99.90;;;;;;4976728;28;20045;-82
2024/03/07 00:42:29;;;;;;;60.17;37.80;;;4.90;99.90;;;;;;4989818;28;20045;-82
2024/03/07 00:44:55;;;;;;;59.28;37.63;;;4.90;99.90;;;;;;4975982;28;20040;-83
2024/03/07 00:47:23;;;;;;;57.72;37.47;;;4.80;99.90;;;;;;4993592;28;21296;-82
2024/03/07 00:49:49;;;;;;;68.30;41.40;;;4.80;99.90;;;;;;4990889;28;20052;-82
2024/03/07 00:52:16;;;;;;;61.53;37.28;;;4.80;99.90;;;;;;4982233;28;20045;-81
2024/03/07 00:54:43;;;;;;;57.88;35.90;;;4.80;99.90;;;;;;4979574;28;20033;-82
2024/03/07 00:57:09;;;;;;;59.72;37.88;;;4.80;99.90;;;;;;4972375;28;20040;-84
2024/03/07 00:59:35;;;;;;;56.75;34.58;;;4.80;99.90;;;;;;4990267;28;20064;-82
2024/03/07 01:02:02;;;;;;;74.63;44.85;;;4.80;99.90;;;;;;4972684;28;20057;-83
2024/03/07 01:04:31;;;;;;;76.30;45.72;;;4.70;99.90;;;;;;4957709;28;20033;-83
2024/03/07 01:06:58;;;;;;;69.68;43.85;;;4.80;99.90;;;;;;4982676;28;20036;-81
2024/03/07 01:09:28;;;;;;;64.45;40.00;;;4.80;99.90;;;;;;4963318;28;20052;-81
2024/03/07 01:11:55;;;;;;;65.45;39.05;;;4.80;99.90;;;;;;4955868;28;20037;-83
2024/03/07 01:14:22;;;;;;;67.18;41.70;;;4.80;99.90;;;;;;4971773;28;20543;-84
2024/03/07 01:16:48;;;;;;;72.47;45.90;;;4.80;99.90;;;;;;5001448;28;20507;-83
2024/03/07 01:19:15;;;;;;;62.25;38.05;;;4.90;99.90;;;;;;4961453;28;20499;-83
2024/03/07 01:21:41;;;;;;;63.42;41.47;;;4.90;99.90;;;;;;5011861;28;20453;-85
2024/03/07 01:24:09;;;;;;;70.47;42.80;;;4.80;99.90;;;;;;5005993;28;20447;-83
2024/03/07 01:26:35;;;;;;;61.63;39.15;;;4.80;99.90;;;;;;5018156;28;20034;-83
2024/03/07 01:29:01;;;;;;;57.83;38.38;;;4.80;99.90;;;;;;4970485;28;20040;-84
2024/03/07 01:31:28;;;;;;;62.03;39.22;;;4.80;99.90;;;;;;5007856;28;20497;-83
2024/03/07 01:33:54;;;;;;;70.57;45.15;;;4.80;99.90;;;;;;4998537;28;20298;-83
2024/03/07 01:36:21;;;;;;;76.13;47.15;;;4.80;99.90;;;;;;4956299;28;20301;-83
2024/03/07 01:38:48;;;;;;;70.57;45.22;;;4.90;99.90;;;;;;4969609;28;21025;-82
2024/03/07 01:41:14;;;;;;;69.25;43.05;;;4.90;99.90;;;;;;4970620;28;20044;-84
2024/03/07 01:43:42;;;;;;;68.40;43.55;;;4.90;99.90;;;;;;4970422;28;20580;-82
2024/03/07 01:46:10;;;;;;;76.93;48.35;;;4.90;99.90;;;;;;4979998;28;20076;-83
2024/03/07 01:48:37;;;;;;;74.85;45.97;;;4.90;99.90;;;;;;4962337;28;20037;-85
2024/03/07 01:51:04;;;;;;;70.85;44.20;;;4.90;99.90;;;;;;4951311;28;21024;-84
2024/03/07 01:53:32;;;;;;;77.97;47.17;;;4.90;99.90;;;;;;4948919;28;20037;-83
2024/03/07 01:55:59;;;;;;;78.35;48.65;;;4.90;99.90;;;;;;4969185;28;20030;-83
2024/03/07 01:58:26;;;;;;;81.75;48.92;;;4.80;99.90;;;;;;4987238;28;20034;-84
2024/03/07 02:00:53;;;;;;;84.07;47.33;;;4.90;99.90;;;;;;4977829;28;20038;-83
2024/03/07 02:03:19;;;;;;;76.10;46.20;;;4.90;99.90;;;;;;4971973;28;20991;-83
2024/03/07 02:05:46;;;;;;;79.70;47.08;;;4.90;99.90;;;;;;4969626;28;20496;-84
2024/03/07 02:08:14;;;;;;;81.07;47.97;;;4.80;99.90;;;;;;4969815;28;20049;-82
2024/03/07 02:10:41;;;;;;;78.45;47.75;;;4.80;99.90;;;;;;4987195;28;20042;-83
2024/03/07 02:13:08;;;;;;;85.00;53.80;;;4.80;99.90;;;;;;4996133;28;20578;-84
2024/03/07 02:15:34;;;;;;;70.50;42.85;;;4.80;99.90;;;;;;4979892;28;20025;-82
2024/03/07 02:18:01;;;;;;;64.53;40.80;;;4.80;99.90;;;;;;4977192;28;20471;-82
2024/03/07 02:20:28;;;;;;;67.85;44.65;;;4.80;99.90;;;;;;4972013;28;20044;-82
2024/03/07 02:22:55;;;;;;;66.28;41.35;;;4.80;99.90;;;;;;4987519;28;20053;-84
2024/03/07 02:25:21;;;;;;;59.50;38.30;;;4.80;99.90;;;;;;4977894;28;20045;-81
2024/03/07 02:27:48;;;;;;;65.32;41.13;;;4.80;99.90;;;;;;4967539;28;21133;-86
2024/03/07 02:30:15;;;;;;;60.08;38.20;;;4.80;99.90;;;;;;4992754;28;20041;-84
2024/03/07 02:32:41;;;;;;;66.03;39.85;;;4.80;99.90;;;;;;4971435;28;20033;-84
2024/03/07 02:35:08;;;;;;;66.65;40.38;;;4.80;99.90;;;;;;4957409;28;20034;-83
2024/03/07 02:37:34;;;;;;;76.60;48.90;;;4.70;99.90;;;;;;4973986;28;20029;-83
2024/03/07 02:40:01;;;;;;;71.28;44.40;;;4.70;99.90;;;;;;4994943;28;20034;-84
2024/03/07 02:42:29;;;;;;;71.88;45.67;;;4.80;99.90;;;;;;4999683;28;21384;-84
2024/03/07 02:44:55;;;;;;;82.72;51.72;;;4.80;99.90;;;;;;4977923;28;20033;-83
2024/03/07 02:47:23;;;;;;;86.53;51.53;;;4.80;99.90;;;;;;5026839;28;20036;-84
2024/03/07 02:49:49;;;;;;;72.80;45.70;;;4.90;99.90;;;;;;4995337;28;20033;-84
2024/03/07 02:52:16;;;;;;;80.20;48.70;;;4.90;99.90;;;;;;4980226;28;20029;-82
2024/03/07 02:54:43;;;;;;;88.45;50.65;;;5.00;99.90;;;;;;4980285;28;20493;-87
2024/03/07 02:57:11;;;;;;;83.80;50.83;;;5.00;99.90;;;;;;4978586;28;20041;-85
2024/03/07 02:59:37;;;;;;;76.03;47.72;;;4.90;99.90;;;;;;4972070;28;20671;-81
2024/03/07 03:02:05;;;;;;;83.25;49.83;;;4.90;99.90;;;;;;4972354;28;20472;-83
2024/03/07 03:04:32;;;;;;;73.15;47.47;;;4.90;99.90;;;;;;4987529;28;20026;-82
2024/03/07 03:06:59;;;;;;;79.80;49.75;;;4.90;99.90;;;;;;4994027;28;20033;-83
2024/03/07 03:09:27;;;;;;;78.65;47.15;;;4.90;99.90;;;;;;5012258;28;20046;-83
2024/03/07 03:11:54;;;;;;;73.70;45.92;;;4.90;99.90;;;;;;4988763;28;20037;-82
2024/03/07 03:14:21;;;;;;;70.28;43.83;;;4.80;99.90;;;;;;5006118;28;20027;-83
2024/03/07 03:16:47;;;;;;;79.43;49.83;;;4.90;99.90;;;;;;4975870;28;20037;-82
2024/03/07 03:19:14;;;;;;;72.28;44.83;;;4.80;99.90;;;;;;4975714;28;20037;-83
2024/03/07 03:21:42;;;;;;;76.72;46.60;;;4.70;99.90;;;;;;4980467;28;20048;-83
2024/03/07 03:24:08;;;;;;;83.35;51.55;;;4.70;99.90;;;;;;4962223;28;20476;-82
2024/03/07 03:26:35;;;;;;;79.43;48.90;;;4.70;99.90;;;;;;4976017;28;20630;-80
2024/03/07 03:29:02;;;;;;;83.05;48.45;;;4.60;99.90;;;;;;4991686;28;20037;-84
2024/03/07 03:31:28;;;;;;;72.63;45.80;;;4.60;99.90;;;;;;4958842;28;20580;-84
2024/03/07 03:33:55;;;;;;;70.60;45.38;;;4.60;99.90;;;;;;4972448;28;20037;-82
2024/03/07 03:36:21;;;;;;;71.20;45.92;;;4.60;99.90;;;;;;4965111;28;20048;-81
2024/03/07 03:38:48;;;;;;;78.53;50.45;;;4.50;99.90;;;;;;4996291;28;20476;-82
2024/03/07 03:41:16;;;;;;;70.60;45.47;;;4.50;99.90;;;;;;4989675;28;20037;-81
2024/03/07 03:43:43;;;;;;;71.95;47.42;;;4.50;99.90;;;;;;4973691;28;20777;-81
2024/03/07 03:46:11;;;;;;;75.18;46.33;;;4.50;99.90;;;;;;5004547;28;20489;-83
2024/03/07 03:48:41;;;;;;;72.18;44.92;;;4.40;99.90;;;;;;4974199;28;20474;-81
2024/03/07 03:51:12;;;;;;;81.38;47.92;;;4.40;99.90;;;;;;4989545;28;20786;-83
2024/03/07 03:53:40;;;;;;;81.72;47.80;;;4.40;99.90;;;;;;4994305;28;21306;-83
2024/03/07 03:56:11;;;;;;;76.50;46.05;;;4.40;99.90;;;;;;4990616;28;20029;-82
2024/03/07 03:58:40;;;;;;;70.75;42.78;;;4.30;99.90;;;;;;4985344;28;20068;-83
2024/03/07 04:01:08;;;;;;;73.82;46.50;;;4.40;99.90;;;;;;4988639;28;20041;-83
2024/03/07 04:03:34;;;;;;;76.65;44.90;;;4.30;99.90;;;;;;4972973;28;20029;-83
2024/03/07 04:06:01;;;;;;;84.70;48.95;;;4.30;99.90;;;;;;5007231;28;20041;-86
2024/03/07 04:08:27;;;;;;;90.43;50.47;;;4.30;99.90;;;;;;4994098;28;20041;-87
2024/03/07 04:10:54;;;;;;;73.30;48.13;;;4.30;99.90;;;;;;4972673;28;20045;-83
2024/03/07 04:13:22;;;;;;;73.90;45.83;;;4.30;99.90;;;;;;4987788;28;20044;-83
2024/03/07 04:15:48;;;;;;;78.85;47.50;;;4.30;99.90;;;;;;4953286;28;20056;-82
2024/03/07 04:18:14;;;;;;;81.40;50.65;;;4.20;99.90;;;;;;4970071;28;20041;-82
2024/03/07 04:20:44;;;;;;;80.43;50.70;;;4.20;99.90;;;;;;4989122;28;20034;-83
2024/03/07 04:23:10;;;;;;;73.28;44.88;;;4.20;99.90;;;;;;4977455;28;20050;-83
2024/03/07 04:25:36;;;;;;;77.82;46.58;;;4.20;99.90;;;;;;4970452;28;20416;-83
2024/03/07 04:28:03;;;;;;;83.45;48.60;;;4.20;99.90;;;;;;4965895;28;20030;-82
2024/03/07 04:30:29;;;;;;;73.32;47.08;;;4.20;99.90;;;;;;4983148;28;20842;-82
2024/03/07 04:32:58;;;;;;;73.72;45.03;;;4.20;99.90;;;;;;4996651;28;20569;-82
2024/03/07 04:35:24;;;;;;;71.43;43.85;;;4.20;99.90;;;;;;4986469;28;20041;-85
2024/03/07 04:37:52;;;;;;;64.82;40.28;;;4.20;99.90;;;;;;4991891;28;20037;-81
2024/03/07 04:40:19;;;;;;;74.93;44.03;;;4.10;99.90;;;;;;4959395;28;20581;-83
2024/03/07 04:42:49;;;;;;;77.55;45.05;;;4.10;99.90;;;;;;4969055;28;20048;-83
2024/03/07 04:45:16;;;;;;;72.55;46.50;;;4.10;99.90;;;;;;4959854;28;20041;-85
2024/03/07 04:47:44;;;;;;;63.03;40.53;;;4.10;99.90;;;;;;4988455;28;20969;-85
2024/03/07 04:50:12;;;;;;;68.30;42.20;;;4.10;99.90;;;;;;4993653;28;20076;-83
2024/03/07 04:52:39;;;;;;;72.47;44.22;;;4.00;99.90;;;;;;4991230;28;20400;-84
2024/03/07 04:55:12;;;;;;;78.50;49.40;;;4.00;99.90;;;;;;4987712;28;20053;-83
2024/03/07 04:57:41;;;;;;;72.15;43.33;;;4.00;99.90;;;;;;4974031;28;20697;-84
2024/03/07 05:00:13;;;;;;;65.90;40.93;;;4.00;99.90;;;;;;4958502;28;20063;-83
2024/03/07 05:02:40;;;;;;;;;;;4.00;99.90;;;;;;5024739;28;20036;-82
2024/03/07 05:05:10;;;;;;;77.05;46.10;;;3.90;99.90;;;;;;4995948;28;20384;-83
2024/03/07 05:07:36;;;;;;;77.57;45.63;;;3.90;99.90;;;;;;4956329;28;20033;-83
2024/03/07 05:10:04;;;;;;;73.50;46.20;;;3.90;99.90;;;;;;4971334;28;20068;-83
2024/03/07 05:12:31;;;;;;;75.40;45.08;;;3.90;99.90;;;;;;4969274;28;20171;-83
2024/03/07 05:14:58;;;;;;;68.07;41.63;;;3.90;99.90;;;;;;4952259;28;20859;-84
2024/03/07 05:17:25;;;;;;;74.65;45.15;;;3.90;99.90;;;;;;5003430;28;20041;-85
2024/03/07 05:19:51;;;;;;;70.05;43.33;;;3.90;99.90;;;;;;4965342;28;20051;-85
2024/03/07 05:22:20;;;;;;;62.10;40.45;;;3.90;99.90;;;;;;4974809;28;20044;-84
2024/03/07 05:24:46;;;;;;;65.85;40.33;;;3.90;99.90;;;;;;5000948;28;20045;-84
2024/03/07 05:27:13;;;;;;;64.70;41.78;;;3.80;99.90;;;;;;4988775;28;20037;-84
2024/03/07 05:29:41;;;;;;;57.63;37.63;;;3.80;99.90;;;;;;4975837;28;20029;-83
2024/03/07 05:32:24;;;;;;;67.85;43.65;;;3.80;99.90;;;;;;4995891;28;20037;-83
2024/03/07 05:34:50;;;;;;;;;;;3.70;99.90;;;;;;4981409;28;20511;-84
2024/03/07 05:37:16;;;;;;;72.70;44.00;;;3.70;99.90;;;;;;4975514;28;20860;-84
2024/03/07 05:39:43;;;;;;;69.90;42.45;;;3.70;99.90;;;;;;4993378;28;20036;-81
2024/03/07 05:42:13;;;;;;;76.72;45.35;;;3.70;99.90;;;;;;4991646;28;20045;-82
2024/03/07 05:44:43;;;;;;;75.97;47.40;;;3.70;99.90;;;;;;4972921;28;20037;-82
2024/03/07 05:47:10;;;;;;;61.92;39.20;;;3.70;99.90;;;;;;4965816;28;20037;-82
2024/03/07 05:49:36;;;;;;;62.10;37.43;;;3.60;99.90;;;;;;4980932;28;20037;-82
2024/03/07 05:52:05;;;;;;;64.90;39.15;;;3.60;99.90;;;;;;4993847;28;21384;-82
2024/03/07 05:54:32;;;;;;;57.63;36.65;;;3.60;99.90;;;;;;4974258;28;20038;-82
2024/03/07 05:56:59;;;;;;;61.97;38.35;;;3.60;99.90;;;;;;4956890;28;20042;-82
2024/03/07 05:59:31;;;;;;;53.97;35.08;;;3.60;99.90;;;;;;4993009;28;20053;-81
2024/03/07 06:01:58;;;;;;;65.50;42.53;;;3.50;99.90;;;;;;4968354;28;20488;-82
2024/03/07 06:04:24;;;;;;;62.75;40.42;;;3.50;99.90;;;;;;4979312;28;20029;-83
2024/03/07 06:06:51;;;;;;;58.67;36.65;;;3.50;99.90;;;;;;4973544;28;20424;-82
2024/03/07 06:09:21;;;;;;;54.88;36.00;;;3.50;99.90;;;;;;4961858;28;20030;-81
2024/03/07 06:11:49;;;;;;;67.90;41.55;;;3.50;99.90;;;;;;4974250;28;20056;-82
2024/03/07 06:14:16;;;;;;;58.45;38.25;;;3.50;99.90;;;;;;4996697;28;20053;-82
2024/03/07 06:16:42;;;;;;;69.93;44.58;;;3.40;99.90;;;;;;5014874;28;20034;-82
2024/03/07 06:19:09;;;;;;;66.47;42.33;;;3.40;99.90;;;;;;4976251;28;20049;-80
2024/03/07 06:21:39;;;;;;;60.60;39.35;;;3.40;99.90;;;;;;4975737;28;20064;-81
2024/03/07 06:24:07;;;;;;;61.95;37.42;;;3.40;99.90;;;;;;4978740;28;20080;-82
2024/03/07 06:27:26;;;;;;;58.27;35.77;;;3.40;99.90;;;;;;4992943;28;20038;-82
2024/03/07 06:29:28;;;;;;;56.88;35.53;;;3.40;99.90;;;;;;4992922;28;20053;-82
2024/03/07 06:31:55;;;;;;;57.80;36.63;;;3.40;99.90;;;;;;4992758;28;20060;-82
2024/03/07 06:34:21;;;;;;;56.92;35.97;;;3.40;99.90;;;;;;4991307;28;20042;-81
2024/03/07 06:36:48;;;;;;;58.60;38.22;;;3.40;99.90;;;;;;4977937;28;20515;-83
2024/03/07 06:39:15;;;;;;;56.85;36.58;;;3.40;99.90;;;;;;4974563;28;20400;-83
2024/03/07 06:41:42;;;;;;;54.77;33.13;;;3.50;99.90;;;;;;4981961;28;20392;-82
2024/03/07 06:44:09;;;;;;;51.08;34.42;;;3.50;99.90;;;;;;4997379;28;21313;-82
2024/03/07 06:46:36;;;;;;;58.60;35.45;;;3.50;99.90;;;;;;4961358;28;20413;-81
2024/03/07 06:49:02;;;;;;;49.92;32.63;;;3.50;99.90;;;;;;4974818;28;20052;-82
2024/03/07 06:51:29;;;;;;;64.53;38.08;;;3.60;99.90;;;;;;4993930;28;20385;-83
2024/03/07 06:53:55;;;;;;;53.70;33.40;;;3.60;99.90;;;;;;5025279;28;20029;-82
2024/03/07 06:56:24;;;;;;;57.83;35.97;;;3.70;99.90;;;;;;4984376;28;20512;-82
2024/03/07 06:58:50;;;;;;;52.75;33.83;;;3.80;99.90;;;;;;4976025;28;20037;-83
2024/03/07 07:01:18;;;;;;;45.58;31.75;;;3.80;99.90;;;;;;4993716;28;22755;-83
2024/03/07 07:03:47;;;;;;;45.87;30.83;;;3.90;99.90;;;;;;4991316;28;20390;-85
2024/03/07 07:06:14;;;;;;;55.40;34.63;;;3.90;99.90;;;;;;4975239;28;20484;-83
2024/03/07 07:08:40;;;;;;;39.53;27.33;;;4.00;99.90;;;;;;4982143;28;20052;-83
2024/03/07 07:11:07;;;;;;;46.03;30.90;;;4.10;99.90;;;;;;4993360;28;20044;-83
2024/03/07 07:13:33;;;;;;;47.40;31.00;;;4.20;99.90;;;;;;4974546;28;21518;-84
2024/03/07 07:16:00;;;;;;;50.70;34.70;;;4.30;99.90;;;;;;4974367;28;20583;-82
2024/03/07 07:18:26;;;;;;;50.10;35.40;;;4.30;99.90;;;;;;4992713;28;20393;-83
2024/03/07 07:20:53;;;;;;;49.30;34.40;;;4.40;99.90;;;;;;4979136;28;20492;-82
2024/03/07 07:23:20;;;;;;;49.70;34.55;;;4.50;99.90;;;;;;4997741;28;20035;-83
2024/03/07 07:25:46;;;;;;;53.63;37.45;;;4.50;99.90;;;;;;4976156;28;20119;-83
2024/03/07 07:28:15;;;;;;;46.10;33.35;;;4.60;99.90;;;;;;4972835;28;20071;-83
2024/03/07 07:30:42;;;;;;;46.28;33.85;;;4.60;99.90;;;;;;4972064;28;20038;-83
2024/03/07 07:33:08;;;;;;;46.10;32.08;;;4.60;99.90;;;;;;4974567;28;20048;-83
2024/03/07 07:35:35;;;;;;;46.30;32.53;;;4.70;99.90;;;;;;4968365;28;20053;-83
2024/03/07 07:38:01;;;;;;;42.78;31.05;;;4.80;99.90;;;;;;4964771;28;20040;-84
2024/03/07 07:40:30;;;;;;;45.05;31.92;;;4.80;99.90;;;;;;4975522;28;20638;-83
2024/03/07 07:42:57;;;;;;;47.40;31.98;;;4.90;99.90;;;;;;4955914;28;20038;-82
2024/03/07 07:45:24;;;;;;;40.28;29.42;;;4.90;99.90;;;;;;4988815;28;20045;-83
2024/03/07 07:47:52;;;;;;;42.53;28.45;;;5.00;99.90;;;;;;5006451;28;20041;-84
2024/03/07 07:50:21;;;;;;;39.50;29.58;;;5.00;99.90;;;;;;4996912;28;20052;-83
2024/03/07 07:52:55;;;;;;;41.28;28.50;;;5.10;99.90;;;;;;4974451;28;20046;-83
2024/03/07 07:55:24;;;;;;;37.17;27.42;;;5.20;99.90;;;;;;4979217;28;20048;-83
2024/03/07 07:57:55;;;;;;;41.63;28.70;;;5.20;99.90;;;;;;4970399;28;21288;-83
2024/03/07 08:00:25;;;;;;;40.10;28.95;;;5.30;99.90;;;;;;5005307;28;20041;-82
2024/03/07 08:02:56;;;;;;;36.88;28.73;;;5.40;99.90;;;;;;4978531;28;20054;-82
2024/03/07 08:05:24;;;;;;;36.45;27.88;;;5.40;99.90;;;;;;4988867;28;20439;-82
2024/03/07 08:07:52;;;;;;;35.00;25.52;;;5.50;99.90;;;;;;4988091;28;20049;-81
2024/03/07 08:10:20;;;;;;;32.83;25.45;;;5.50;99.90;;;;;;4971072;28;20060;-81
2024/03/07 08:12:48;;;;;;;36.13;28.17;;;5.60;99.90;;;;;;4976819;28;20045;-81
2024/03/07 08:15:14;;;;;;;37.67;26.60;;;5.70;99.90;;;;;;4998331;28;20025;-82
2024/03/07 08:17:45;;;;;;;36.35;25.77;;;5.70;99.90;;;;;;4982571;28;20048;-83
2024/03/07 08:20:13;;;;;;;33.92;25.00;;;5.70;99.90;;;;;;4958111;28;20424;-82
2024/03/07 08:22:43;;;;;;;31.58;24.42;;;5.80;99.90;;;;;;4987097;28;20040;-79
2024/03/07 08:25:14;;;;;;;30.83;22.88;;;5.90;99.90;;;;;;4973597;28;20045;-80
2024/03/07 08:27:42;;;;;;;28.27;22.88;;;6.00;99.90;;;;;;4972462;28;20034;-81
2024/03/07 08:30:12;;;;;;;28.13;20.88;;;5.90;99.90;;;;;;4996422;28;20593;-80
2024/03/07 08:32:53;;;;;;;27.27;21.13;;;6.10;99.90;;;;;;4968488;28;20057;-81
2024/03/07 08:35:21;;;;;;;29.95;21.52;;;6.10;99.90;;;;;;4954916;28;20049;-81
2024/03/07 08:37:58;;;;;;;28.33;22.02;;;6.20;99.90;;;;;;4974186;28;20057;-83
2024/03/07 08:40:32;;;;;;;27.80;20.58;;;6.30;99.90;;;;;;4992947;28;20044;-83
2024/03/07 08:42:59;;;;;;;28.20;21.00;;;6.30;99.90;;;;;;4964262;28;20389;-81
2024/03/07 08:45:27;;;;;;;27.33;20.67;;;6.40;99.90;;;;;;4987485;28;20067;-83
2024/03/07 08:47:55;;;;;;;27.88;20.13;;;6.40;99.90;;;;;;4986193;28;20037;-81
2024/03/07 08:50:23;;;;;;;25.83;20.52;;;6.50;99.90;;;;;;4971681;28;20079;-81
2024/03/07 08:52:50;;;;;;;28.38;20.92;;;6.50;99.90;;;;;;4970715;28;20033;-82
2024/03/07 08:55:25;;;;;;;27.85;20.23;;;6.50;99.90;;;;;;4980701;28;21310;-82
2024/03/07 08:57:51;;;;;;;26.70;20.55;;;6.50;99.90;;;;;;4988992;28;20029;-80
2024/03/07 09:00:24;;;;;;;28.85;20.52;;;6.60;99.90;;;;;;4972911;28;20045;-82
2024/03/07 09:02:58;;;;;;;26.13;20.70;;;6.60;99.90;;;;;;4981028;28;20044;-82
2024/03/07 09:05:26;;;;;;;29.00;20.67;;;6.70;99.90;;;;;;4975071;28;20480;-82
2024/03/07 09:07:54;;;;;;;28.40;21.45;;;6.80;99.90;;;;;;4978209;28;20037;-81
2024/03/07 09:10:20;;;;;;;30.77;22.27;;;6.80;99.90;;;;;;4998425;28;20032;-81
2024/03/07 09:12:50;;;;;;;28.17;20.17;;;6.90;99.90;;;;;;4975231;28;20037;-79
2024/03/07 09:15:17;;;;;;;28.60;20.90;;;6.90;99.90;;;;;;4991501;28;20500;-80
2024/03/07 09:17:44;;;;;;;32.50;23.83;;;6.90;99.90;;;;;;4975969;28;20493;-79
2024/03/07 09:20:14;;;;;;;30.27;21.55;;;6.90;99.90;;;;;;4958482;28;20586;-79
2024/03/07 09:22:44;;;;;;;29.40;21.70;;;7.00;99.90;;;;;;4978220;28;20022;-79
2024/03/07 09:25:12;;;;;;;27.85;21.35;;;7.00;99.90;;;;;;4979641;28;20482;-80
2024/03/07 09:27:40;;;;;;;24.88;19.50;;;7.10;99.90;;;;;;4989661;28;20045;-81
2024/03/07 09:30:11;;;;;;;24.17;18.30;;;7.10;99.90;;;;;;4972647;28;20472;-82
2024/03/07 09:32:42;;;;;;;23.20;17.70;;;7.20;99.90;;;;;;4987000;28;20072;-81
2024/03/07 09:35:13;;;;;;;31.98;22.13;;;7.30;99.90;;;;;;4997735;28;20029;-79
2024/03/07 09:37:43;;;;;;;29.27;20.33;;;7.30;99.90;;;;;;4980490;28;20037;-79
2024/03/07 09:40:11;;;;;;;27.42;19.55;;;7.40;99.90;;;;;;5008679;28;20034;-79
2024/03/07 09:42:51;;;;;;;28.15;20.13;;;7.50;99.90;;;;;;4959425;28;20038;-80
2024/03/07 09:45:20;;;;;;;29.73;20.65;;;7.50;99.90;;;;;;4976078;28;20025;-81
2024/03/07 09:47:49;;;;;;;26.27;19.50;;;7.60;99.90;;;;;;4978025;28;20041;-80
2024/03/07 09:50:23;;;;;;;27.63;19.98;;;7.70;99.90;;;;;;5000022;28;20037;-82
2024/03/07 09:52:52;;;;;;;23.85;16.70;;;7.70;99.90;;;;;;4974188;28;20497;-82
2024/03/07 09:55:20;;;;;;;24.50;18.27;;;7.80;99.90;;;;;;4989716;28;20741;-81
2024/03/07 09:57:48;;;;;;;23.42;17.77;;;8.00;99.90;;;;;;4988191;28;20052;-81
2024/03/07 10:00:25;;;;;;;26.67;18.02;;;8.10;99.90;;;;;;4976188;28;20894;-82
2024/03/07 10:02:55;;;;;;;26.15;19.77;;;8.20;99.90;;;;;;4995741;28;20419;-80
2024/03/07 10:05:23;;;;;;;25.92;18.52;;;8.40;99.90;;;;;;4961664;28;20144;-79
2024/03/07 10:07:51;;;;;;;29.35;20.67;;;8.50;99.90;;;;;;4975848;28;20041;-81
2024/03/07 10:10:19;;;;;;;23.77;18.13;;;8.50;99.90;;;;;;4987632;28;20084;-81
2024/03/07 10:12:46;;;;;;;23.77;18.95;;;8.50;99.90;;;;;;5004571;28;20516;-81
2024/03/07 10:15:12;;;;;;;25.13;18.63;;;8.60;99.90;;;;;;4992887;28;20033;-79
2024/03/07 10:17:40;;;;;;;24.48;18.73;;;8.70;99.90;;;;;;4980594;28;20037;-80
2024/03/07 10:20:13;;;;;;;26.33;21.20;;;8.80;99.90;;;;;;4971971;28;20037;-80
2024/03/07 10:22:41;;;;;;;;;;;9.00;99.90;;;;;;4970003;28;20389;-78
2024/03/07 10:25:07;;;;;;;22.48;16.70;;;9.20;99.90;;;;;;4998354;28;19917;-78
2024/03/07 10:27:37;;;;;;;20.27;16.42;;;9.20;99.90;;;;;;5005231;28;20393;-80
2024/03/07 10:30:07;;;;;;;24.35;17.23;;;9.40;99.90;;;;;;4999860;28;20049;-80
2024/03/07 10:32:33;;;;;;;25.65;17.80;;;9.60;99.90;;;;;;4993560;28;20075;-81
2024/03/07 10:35:00;;;;;;;24.05;19.45;;;9.60;99.90;;;;;;4985682;28;20037;-80
2024/03/07 10:37:27;;;;;;;25.00;18.80;;;9.60;99.90;;;;;;4971295;28;20819;-80
2024/03/07 10:39:53;;;;;;;23.83;18.23;;;9.60;99.90;;;;;;4968315;28;20033;-76
2024/03/07 10:42:21;;;;;;;25.90;17.88;;;9.60;99.90;;;;;;4986820;28;20583;-82
2024/03/07 10:44:49;;;;;;;24.13;17.85;;;9.70;99.90;;;;;;4994644;28;20045;-83
2024/03/07 10:47:20;;;;;;;28.33;19.25;;;9.80;99.90;;;;;;4979737;28;20025;-77
2024/03/07 10:49:50;;;;;;;28.60;20.63;;;9.90;99.90;;;;;;4972319;28;20050;-75
2024/03/07 10:52:30;;;;;;;23.50;17.00;;;10.00;99.90;;;;;;4988954;28;20045;-80
2024/03/07 10:55:39;;;;;;;25.95;18.45;;;10.00;99.90;;;;;;4989673;28;20571;-82
2024/03/07 10:58:14;;;;;;;24.27;18.00;;;10.10;99.90;;;;;;4992988;28;20049;-82
2024/03/07 11:00:51;;;;;;;23.10;17.00;;;10.10;99.90;;;;;;4996349;28;20040;-79
2024/03/07 11:03:20;;;;;;;21.92;16.52;;;10.10;99.90;;;;;;4984686;28;20037;-79
2024/03/07 11:05:47;;;;;;;21.88;17.10;;;10.00;99.90;;;;;;4952177;28;20029;-79
2024/03/07 11:08:14;;;;;;;26.42;20.02;;;10.00;99.90;;;;;;4965668;28;20042;-78
2024/03/07 11:10:42;;;;;;;26.13;18.85;;;9.90;99.90;;;;;;4957678;28;20044;-80
2024/03/07 11:13:11;;;;;;;26.33;18.55;;;9.90;99.90;;;;;;4994540;28;20911;-82
2024/03/07 11:15:41;;;;;;;26.48;19.33;;;9.90;99.90;;;;;;4990776;28;20052;-79
2024/03/07 11:18:09;;;;;;;25.73;18.60;;;10.00;99.90;;;;;;4969211;28;20555;-79
2024/03/07 11:20:38;;;;;;;23.33;17.60;;;10.00;99.90;;;;;;4989646;28;20034;-80
2024/03/07 11:23:38;;;;;;;24.30;16.80;;;10.00;99.90;;;;;;4987092;28;20812;-79
2024/03/07 11:26:08;;;;;;;36.53;23.33;;;10.00;99.90;;;;;;4976343;28;20393;-78
2024/03/07 11:28:39;;;;;;;27.55;19.17;;;9.90;99.90;;;;;;4981120;28;20507;-78
2024/03/07 11:31:26;;;;;;;22.90;17.77;;;9.90;99.90;;;;;;4995983;28;20526;-80
2024/03/07 11:34:14;;;;;;;23.90;17.13;;;10.10;99.90;;;;;;4966914;28;20069;-80
2024/03/07 11:36:45;;;;;;;22.23;17.80;;;10.20;99.90;;;;;;4989682;28;20265;-80
2024/03/07 11:39:48;;;;;;;26.08;17.50;;;10.20;99.90;;;;;;4999864;28;20484;-80
2024/03/07 11:42:28;;;;;;;;;;;10.20;99.90;;;;;;4992528;28;21479;-81
2024/03/07 11:44:58;;;;;;;24.33;17.45;;;10.20;99.90;;;;;;4992595;28;19913;-81
2024/03/07 11:47:38;;;;;;;23.00;17.60;;;10.20;99.90;;;;;;4967295;28;20365;-80
2024/03/07 11:50:14;;;;;;;24.05;17.10;;;10.30;99.90;;;;;;4984530;28;20041;-78
2024/03/07 11:52:44;;;;;;;21.92;16.15;;;10.30;99.90;;;;;;4951628;28;20041;-78
2024/03/07 11:55:11;;;;;;;24.25;17.25;;;10.40;99.90;;;;;;4986415;28;20080;-81
2024/03/07 11:57:38;;;;;;;24.02;16.15;;;10.40;99.90;;;;;;4974947;28;20045;-79
2024/03/07 12:00:11;;;;;;;21.25;16.35;;;10.50;99.90;;;;;;4996864;28;20468;-81
2024/03/07 12:02:41;;;;;;;21.50;17.02;;;10.60;99.90;;;;;;4966938;28;20049;-80
2024/03/07 12:05:08;;;;;;;20.77;15.95;;;10.60;99.90;;;;;;4968423;28;20061;-80
2024/03/07 12:07:35;;;;;;;20.95;15.90;;;10.80;99.90;;;;;;4973883;28;20037;-80
2024/03/07 12:10:06;;;;;;;19.90;14.80;;;10.90;99.90;;;;;;4977844;28;20056;-80
2024/03/07 12:12:33;;;;;;;19.02;14.05;;;11.10;99.90;;;;;;4985616;28;20045;-81
2024/03/07 12:15:01;;;;;;;19.80;15.07;;;11.40;99.90;;;;;;4984914;28;20041;-80
2024/03/07 12:17:30;;;;;;;17.33;13.68;;;11.60;99.90;;;;;;4988826;28;20049;-79
2024/03/07 12:20:01;;;;;;;17.52;13.98;;;11.60;99.90;;;;;;4956613;28;20052;-80
2024/03/07 12:22:29;;;;;;;19.60;15.32;;;11.50;99.90;;;;;;4996478;28;20033;-81
2024/03/07 12:25:05;;;;;;;20.48;14.93;;;11.80;99.90;;;;;;4997066;28;22175;-78
2024/03/07 12:27:39;;;;;;;20.55;14.45;;;12.30;99.90;;;;;;4988582;28;20037;-81
2024/03/07 12:30:19;;;;;;;17.27;12.85;;;12.50;99.90;;;;;;4995220;28;20432;-81
2024/03/07 12:32:49;;;;;;;17.35;13.13;;;12.60;99.90;;;;;;5025328;28;21195;-80
2024/03/07 12:35:16;;;;;;;16.15;12.63;;;12.70;99.90;;;;;;5001666;28;20481;-80
2024/03/07 12:37:46;;;;;;;18.48;13.20;;;12.70;99.90;;;;;;4997771;28;20045;-81
2024/03/07 12:40:19;;;;;;;17.40;14.15;;;13.20;99.90;;;;;;4959811;28;20053;-80
2024/03/07 12:42:54;;;;;;;19.65;15.38;;;13.30;99.90;;;;;;4976602;28;20036;-82